Time;durP1;ratioP1;P1;durP2;ratioP2;P2;SDS_P1;SDS_P2;PMS_P1;PMS_P2;Temp;Humidity;BMP_temperature;BMP_pressure;BME280_temperature;BME280_humidity;BME280_pressure;Samples;Min_cycle;Max_cycle;Signal;HPM_P1;HPM_P2
2023/05/27 00:01:55;;;;;;;11.50;6.20;;;;;;;9.90;82.45;99739.77;274382;1269;22225;-85
2023/05/27 00:07:57;;;;;;;13.90;6.90;;;;;;;9.76;82.94;99749.02;274364;1263;23915;-85
2023/05/27 00:15:04;;;;;;;15.20;7.80;;;;;;;9.66;83.21;99749.68;272783;1266;22647;-85
2023/05/27 00:36:17;;;;;;;13.30;7.20;;;;;;;9.14;84.97;99734.15;274336;1273;22353;-84
2023/05/27 00:42:19;;;;;;;17.20;6.90;;;;;;;9.03;85.29;99733.27;274344;1263;22426;-86
2023/05/27 00:49:16;;;;;;;16.20;7.00;;;;;;;8.97;85.51;99733.00;274250;1273;23377;-86
2023/05/27 00:56:25;;;;;;;12.70;5.50;;;;;;;8.75;85.44;99734.00;273349;1271;22469;-85
2023/05/27 01:02:29;;;;;;;12.50;6.00;;;;;;;8.59;85.67;99745.52;272474;1272;22239;-84
2023/05/27 01:08:37;;;;;;;12.40;6.30;;;;;;;8.47;86.44;99754.09;269809;1260;22615;-85
2023/05/27 01:15:08;;;;;;;13.60;5.70;;;;;;;8.46;87.12;99760.00;270310;1265;22556;-85
2023/05/27 01:21:12;;;;;;;11.40;5.60;;;;;;;8.39;87.74;99757.73;270237;1266;22511;-84
2023/05/27 01:27:15;;;;;;;13.70;6.50;;;;;;;8.29;87.68;99754.55;270867;1267;23855;-85
2023/05/27 01:33:24;;;;;;;12.80;7.60;;;;;;;8.17;87.93;99749.52;270631;1266;26518;-86
2023/05/27 01:39:26;;;;;;;12.90;5.40;;;;;;;8.05;88.17;99748.20;270626;1256;23364;-85
2023/05/27 01:45:27;;;;;;;15.40;5.60;;;;;;;7.87;87.98;99754.54;270136;1266;22799;-85
2023/05/27 01:51:28;;;;;;;16.00;6.60;;;;;;;7.73;88.59;99758.71;270654;1266;22538;-85
2023/05/27 01:57:29;;;;;;;8.20;5.50;;;;;;;7.66;88.99;99759.55;270727;1269;22525;-85
2023/05/27 02:03:30;;;;;;;8.90;5.20;;;;;;;7.65;89.74;99763.26;271176;1266;22161;-86
2023/05/27 02:09:31;;;;;;;15.50;5.90;;;;;;;7.66;90.10;99763.21;272008;1266;22179;-86
2023/05/27 02:15:34;;;;;;;12.20;6.10;;;;;;;7.61;90.32;99765.86;270834;1265;22985;-87
2023/05/27 02:21:39;;;;;;;15.10;6.40;;;;;;;7.56;90.48;99767.39;270205;1266;22557;-86
2023/05/27 02:27:41;;;;;;;7.70;4.30;;;;;;;7.51;90.61;99774.61;270372;1266;24353;-85
2023/05/27 02:33:43;;;;;;;13.50;6.30;;;;;;;7.45;90.94;99778.05;270480;1267;25230;-86
2023/05/27 02:39:44;;;;;;;12.10;6.00;;;;;;;7.35;90.85;99792.39;272040;1269;22800;-86
2023/05/27 02:45:45;;;;;;;11.40;6.00;;;;;;;7.26;91.32;99798.98;272015;1269;22581;-86
2023/05/27 02:51:46;;;;;;;12.30;5.20;;;;;;;7.22;91.78;99800.11;271836;1267;23693;-86
2023/05/27 02:57:47;;;;;;;11.10;5.00;;;;;;;7.18;92.10;99808.65;270601;1267;22344;-87
2023/05/27 03:03:47;;;;;;;12.80;5.80;;;;;;;7.14;92.32;99804.86;273462;1266;22406;-86
2023/05/27 03:09:49;;;;;;;10.80;6.00;;;;;;;7.08;92.31;99811.31;273854;1266;22449;-86
2023/05/27 03:15:50;;;;;;;12.80;5.70;;;;;;;7.09;93.04;99820.52;274015;1267;22310;-86
2023/05/27 03:21:51;;;;;;;13.10;6.10;;;;;;;7.11;92.97;99826.14;273304;1260;23590;-86
2023/05/27 03:35:25;;;;;;;11.20;5.90;;;;;;;7.12;93.42;99832.45;271695;1266;22327;-87
2023/05/27 03:41:27;;;;;;;10.70;5.30;;;;;;;7.14;93.85;99839.63;272146;1266;23285;-86
2023/05/27 03:47:29;;;;;;;9.30;4.70;;;;;;;7.18;94.39;99843.41;273132;1267;22583;-86
2023/05/27 03:53:30;;;;;;;13.90;5.50;;;;;;;7.27;95.13;99846.59;270265;1267;22511;-86
2023/05/27 04:23:11;;;;;;;12.30;5.50;;;;;;;8.10;97.45;99859.70;270760;1267;23059;-86
2023/05/27 04:36:56;;;;;;;15.40;6.90;;;;;;;8.59;98.22;99872.52;270301;1267;22522;-85
2023/05/27 05:14:04;;;;;;;12.40;5.60;;;;;;;10.21;96.35;99883.78;273079;1267;22543;-84
2023/05/27 05:20:07;;;;;;;17.60;6.30;;;;;;;10.55;95.55;99886.40;273784;1267;22295;-86
2023/05/27 05:26:09;;;;;;;14.10;5.10;;;;;;;10.90;94.42;99884.37;271227;1261;22571;-83
2023/05/27 05:32:13;;;;;;;15.40;5.10;;;;;;;11.26;93.14;99881.84;272597;1266;23016;-82
2023/05/27 05:38:15;;;;;;;9.80;4.10;;;;;;;11.52;91.94;99879.58;270912;1257;22581;-83
2023/05/27 05:44:17;;;;;;;14.00;5.00;;;;;;;11.68;90.82;99876.50;271436;1257;22294;-82
2023/05/27 05:50:18;;;;;;;14.00;4.80;;;;;;;11.86;89.92;99879.08;271833;1267;22526;-83
2023/05/27 05:56:21;;;;;;;13.00;4.20;;;;;;;12.06;89.51;99881.75;272853;1267;25403;-81
2023/05/27 06:02:25;;;;;;;18.50;5.40;;;;;;;12.21;88.70;99892.30;271219;1267;22979;-83
2023/05/27 06:08:26;;;;;;;16.30;4.70;;;;;;;12.35;87.38;99887.53;274041;1257;22669;-82
2023/05/27 06:14:35;;;;;;;16.50;4.60;;;;;;;12.52;86.53;99884.55;273783;1258;22384;-83
2023/05/27 06:20:36;;;;;;;17.70;4.40;;;;;;;12.74;86.18;99889.31;273999;1257;22261;-84
2023/05/27 06:26:49;;;;;;;16.10;5.40;;;;;;;12.97;85.14;99893.05;273777;1257;22355;-84
2023/05/27 06:32:51;;;;;;;16.40;4.10;;;;;;;13.17;84.78;99897.48;273443;1266;22319;-85
2023/05/27 06:38:53;;;;;;;13.90;4.90;;;;;;;13.37;83.42;99896.05;273224;1266;22397;-85
2023/05/27 06:44:54;;;;;;;15.30;3.90;;;;;;;13.60;83.49;99896.60;273741;1266;22334;-84
2023/05/27 06:50:59;;;;;;;20.40;4.80;;;;;;;13.91;82.65;99891.57;273522;1266;22442;-83
2023/05/27 06:57:01;;;;;;;16.10;4.20;;;;;;;14.37;81.55;99890.05;273298;1266;23158;-85
2023/05/27 07:03:23;;;;;;;15.60;3.90;;;;;;;14.92;79.92;99884.50;273111;1266;22389;-83
2023/05/27 07:09:26;;;;;;;18.30;4.50;;;;;;;15.40;78.67;99884.27;273310;1265;23245;-85
2023/05/27 07:15:28;;;;;;;17.70;4.70;;;;;;;15.93;78.03;99888.41;273516;1266;22404;-83
2023/05/27 07:21:29;;;;;;;15.20;3.60;;;;;;;16.40;77.39;99894.88;273968;1250;23119;-83
2023/05/27 07:27:30;;;;;;;12.20;4.00;;;;;;;16.82;75.09;99893.83;273500;1250;22563;-84
2023/05/27 07:33:32;;;;;;;10.30;3.40;;;;;;;17.24;73.71;99889.55;273623;1266;22335;-84
2023/05/27 07:39:36;;;;;;;11.80;3.50;;;;;;;17.50;72.83;99891.73;273348;1266;22356;-83
2023/05/27 07:45:37;;;;;;;13.10;3.90;;;;;;;17.66;70.64;99886.85;273482;1266;23508;-84
2023/05/27 07:51:39;;;;;;;16.80;4.10;;;;;;;17.86;69.13;99882.73;273417;1266;22359;-84
2023/05/27 07:57:45;;;;;;;14.80;3.30;;;;;;;17.97;68.21;99887.44;273329;1266;22330;-84
2023/05/27 08:03:47;;;;;;;11.50;3.80;;;;;;;18.03;66.44;99883.94;273451;1266;22341;-86
2023/05/27 08:10:17;;;;;;;14.30;3.90;;;;;;;18.20;66.78;99875.61;273238;1265;22411;-86
2023/05/27 08:16:42;;;;;;;16.80;4.70;;;;;;;18.34;66.51;99874.74;272441;1265;25403;-84
2023/05/27 08:22:54;;;;;;;11.90;3.90;;;;;;;18.35;65.83;99876.23;271172;1267;22618;-83
2023/05/27 08:29:07;;;;;;;11.90;3.80;;;;;;;18.36;64.74;99875.06;270847;1266;22548;-83
2023/05/27 08:35:22;;;;;;;13.70;4.20;;;;;;;18.52;64.54;99874.02;270774;1251;24259;-85
2023/05/27 08:41:26;;;;;;;14.10;4.30;;;;;;;18.60;64.33;99875.39;270573;1266;22514;-83
2023/05/27 08:47:28;;;;;;;15.00;4.20;;;;;;;18.56;63.67;99869.79;270737;1267;22525;-83
2023/05/27 08:53:35;;;;;;;11.40;4.20;;;;;;;18.46;62.43;99866.45;270520;1257;22551;-85
2023/05/27 08:59:37;;;;;;;11.50;4.20;;;;;;;18.35;61.54;99855.89;270334;1266;22554;-82
2023/05/27 09:05:38;;;;;;;14.80;4.10;;;;;;;18.39;61.05;99853.66;271341;1265;22289;-82
2023/05/27 09:11:40;;;;;;;12.50;3.90;;;;;;;18.55;60.74;99849.90;274218;1256;22344;-83
2023/05/27 09:17:42;;;;;;;13.40;3.30;;;;;;;18.97;60.72;99844.23;273975;1266;22325;-83
2023/05/27 09:23:44;;;;;;;10.00;3.70;;;;;;;19.21;59.68;99835.30;273844;1265;23392;-83
2023/05/27 09:29:45;;;;;;;9.40;3.60;;;;;;;19.49;59.20;99824.30;274006;1253;22383;-82
2023/05/27 09:35:46;;;;;;;12.40;3.80;;;;;;;19.94;58.42;99823.48;274149;1266;22373;-83
2023/05/27 09:41:52;;;;;;;12.60;3.30;;;;;;;20.40;57.80;99819.35;274174;1265;22189;-83
2023/05/27 09:47:54;;;;;;;10.10;3.70;;;;;;;20.83;56.44;99810.38;274051;1266;22393;-83
2023/05/27 09:54:02;;;;;;;12.10;4.30;;;;;;;21.28;54.71;99807.19;274147;1266;23129;-86
2023/05/27 10:00:17;;;;;;;8.80;3.40;;;;;;;21.56;54.13;99810.60;271293;1266;752758;-83
2023/05/27 10:06:19;;;;;;;9.40;3.60;;;;;;;21.50;53.40;99809.84;271193;1257;22539;-82
2023/05/27 10:12:23;;;;;;;13.80;3.80;;;;;;;21.30;53.56;99804.14;271186;1266;24260;-82
2023/05/27 10:18:29;;;;;;;11.70;3.80;;;;;;;21.78;53.14;99792.58;273839;1266;22309;-83
2023/05/27 10:24:31;;;;;;;12.30;4.40;;;;;;;21.64;51.81;99794.20;273911;1267;22231;-84
2023/05/27 10:30:48;;;;;;;11.30;3.50;;;;;;;21.80;51.72;99791.81;271728;1266;22243;-85
2023/05/27 10:37:02;;;;;;;7.80;3.30;;;;;;;21.48;50.88;99791.74;270280;1262;23471;-85
2023/05/27 10:43:14;;;;;;;10.70;3.20;;;;;;;21.48;50.22;99791.26;270103;1266;22987;-83
2023/05/27 10:49:22;;;;;;;15.20;4.30;;;;;;;21.76;48.89;99790.06;271340;1265;22552;-83
2023/05/27 10:55:24;;;;;;;8.20;3.10;;;;;;;21.78;47.71;99791.62;270875;1253;22572;-83
2023/05/27 11:01:28;;;;;;;10.70;3.30;;;;;;;22.23;47.60;99788.92;272567;1266;22213;-83
2023/05/27 11:07:29;;;;;;;11.40;3.30;;;;;;;22.49;47.17;99784.59;272933;1254;22798;-84
2023/05/27 11:13:39;;;;;;;7.60;3.30;;;;;;;22.78;45.66;99781.05;272383;1254;23596;-83
2023/05/27 11:19:41;;;;;;;8.70;2.80;;;;;;;23.21;44.98;99765.32;271516;1256;23751;-82
2023/05/27 11:25:43;;;;;;;8.00;3.90;;;;;;;23.53;44.27;99764.48;272954;1266;22459;-84
2023/05/27 11:31:47;;;;;;;6.80;4.20;;;;;;;23.63;43.32;99765.95;274174;1265;23048;-86
2023/05/27 11:37:51;;;;;;;5.90;3.70;;;;;;;23.57;41.51;99769.97;274146;1253;22231;-83
2023/05/27 11:44:06;;;;;;;9.90;4.00;;;;;;;23.78;41.53;99765.33;274230;1253;22237;-85
2023/05/27 11:50:07;;;;;;;6.30;3.90;;;;;;;23.74;39.42;99763.86;274139;1266;22522;-85
2023/05/27 11:56:08;;;;;;;5.30;4.10;;;;;;;23.48;38.08;99761.35;274207;1266;22225;-84
2023/05/27 12:02:09;;;;;;;6.90;4.80;;;;;;;23.45;37.07;99757.14;274124;1266;22334;-83
2023/05/27 12:08:14;;;;;;;7.50;3.70;;;;;;;23.27;37.64;99756.55;273995;1259;22324;-84
2023/05/27 12:14:15;;;;;;;6.50;3.80;;;;;;;22.87;36.74;99757.60;274205;1266;22351;-84
2023/05/27 12:20:16;;;;;;;8.80;4.00;;;;;;;22.37;36.25;99748.84;274235;1250;22301;-84
2023/05/27 12:26:18;;;;;;;6.40;4.10;;;;;;;22.02;36.45;99743.46;273317;1266;22515;-82
2023/05/27 12:32:18;;;;;;;9.90;7.00;;;;;;;21.84;35.76;99743.48;272925;1266;22226;-84
2023/05/27 12:38:20;;;;;;;7.20;4.30;;;;;;;21.60;35.22;99740.55;274327;1266;22319;-84
2023/05/27 12:44:21;;;;;;;6.60;4.30;;;;;;;21.33;35.24;99737.47;273881;1266;22571;-83
2023/05/27 12:50:23;;;;;;;7.70;4.80;;;;;;;21.19;35.56;99731.38;270765;1266;22776;-84
2023/05/27 12:56:24;;;;;;;5.20;3.90;;;;;;;21.15;35.49;99730.51;270568;1258;23364;-82
2023/05/27 13:02:25;;;;;;;8.40;4.50;;;;;;;21.11;35.54;99731.23;270513;1254;22637;-83
2023/05/27 13:08:26;;;;;;;8.40;3.90;;;;;;;21.06;35.43;99730.70;271689;1266;23479;-83
2023/05/27 13:14:27;;;;;;;7.50;3.70;;;;;;;21.00;35.04;99731.52;271073;1251;22527;-81
2023/05/27 13:20:29;;;;;;;5.80;3.20;;;;;;;20.99;35.35;99723.26;270610;1266;22690;-82
2023/05/27 13:26:32;;;;;;;5.20;2.90;;;;;;;21.00;35.29;99716.02;270438;1256;22556;-82
2023/05/27 13:32:33;;;;;;;6.80;3.60;;;;;;;20.83;35.38;99712.11;270533;1266;22554;-84
2023/05/27 13:38:34;;;;;;;4.80;2.70;;;;;;;20.69;35.55;99710.38;270648;1254;22527;-83
2023/05/27 13:44:35;;;;;;;7.80;3.10;;;;;;;20.64;35.39;99700.45;271737;1266;22556;-84
2023/05/27 13:50:36;;;;;;;6.10;2.60;;;;;;;20.55;35.15;99696.27;272043;1266;22555;-84
2023/05/27 13:56:37;;;;;;;5.50;2.90;;;;;;;20.48;35.64;99695.52;272025;1266;23373;-83
2023/05/27 14:02:38;;;;;;;5.10;2.30;;;;;;;20.60;35.73;99688.85;270717;1254;24234;-82
2023/05/27 14:08:39;;;;;;;4.90;2.50;;;;;;;20.73;36.10;99682.80;271171;1266;22151;-84
2023/05/27 14:14:40;;;;;;;6.10;2.40;;;;;;;20.73;36.17;99680.34;270996;1261;22513;-85
2023/05/27 14:20:41;;;;;;;8.40;2.50;;;;;;;20.65;36.16;99675.73;271204;1263;23088;-83
2023/05/27 14:26:43;;;;;;;3.90;2.40;;;;;;;20.60;36.85;99672.96;272876;1266;22287;-85
2023/05/27 14:32:45;;;;;;;4.80;2.60;;;;;;;20.59;36.29;99671.94;271966;1266;23763;-84
2023/05/27 14:38:45;;;;;;;4.40;2.60;;;;;;;20.50;36.40;99666.15;274184;1256;23463;-83
2023/05/27 14:44:46;;;;;;;3.60;1.90;;;;;;;20.40;36.64;99657.20;274287;1256;22645;-83
2023/05/27 14:50:47;;;;;;;3.80;2.10;;;;;;;20.44;36.83;99654.12;274222;1267;22375;-83
2023/05/27 14:56:49;;;;;;;5.30;2.10;;;;;;;20.46;37.74;99649.80;274128;1259;22506;-83
2023/05/27 15:02:50;;;;;;;5.80;2.40;;;;;;;20.47;37.65;99640.71;274276;1253;22226;-83
2023/05/27 15:08:51;;;;;;;8.40;2.60;;;;;;;20.48;38.30;99634.09;271230;1257;22631;-83
2023/05/27 15:14:59;;;;;;;6.80;2.00;;;;;;;20.37;38.48;99628.34;270689;1256;24397;-85
2023/05/27 15:21:00;;;;;;;3.80;1.90;;;;;;;20.05;38.38;99625.29;270487;1266;25401;-83
2023/05/27 15:27:05;;;;;;;6.00;2.10;;;;;;;19.82;38.78;99618.30;272404;1251;22356;-84
2023/05/27 15:33:06;;;;;;;3.50;1.90;;;;;;;19.66;38.96;99610.38;274275;1256;23251;-83
2023/05/27 15:39:07;;;;;;;3.20;1.70;;;;;;;19.58;39.34;99608.05;274193;1256;22800;-83
2023/05/27 15:45:08;;;;;;;7.90;2.30;;;;;;;19.46;39.48;99615.23;274270;1266;22435;-85
2023/05/27 15:51:09;;;;;;;2.70;1.60;;;;;;;19.34;39.79;99615.31;274189;1265;23521;-83
2023/05/27 15:57:10;;;;;;;2.60;1.80;;;;;;;19.25;40.44;99616.06;274106;1257;22348;-83
2023/05/27 16:03:11;;;;;;;4.00;1.90;;;;;;;19.18;40.82;99616.55;274098;1266;24064;-85
2023/05/27 16:09:12;;;;;;;4.10;1.70;;;;;;;19.11;40.99;99606.33;273619;1262;22374;-83
2023/05/27 16:15:13;;;;;;;3.60;2.20;;;;;;;19.03;40.64;99602.48;272823;1256;22542;-84
2023/05/27 16:21:14;;;;;;;3.80;2.10;;;;;;;18.95;40.61;99602.51;273678;1256;22307;-83
2023/05/27 16:27:17;;;;;;;3.80;1.80;;;;;;;18.89;40.83;99596.89;274146;1266;23516;-82
2023/05/27 16:33:18;;;;;;;3.90;2.00;;;;;;;18.81;41.03;99590.71;274130;1266;23562;-82
2023/05/27 16:39:20;;;;;;;6.40;1.90;;;;;;;18.73;41.00;99588.98;274156;1261;22371;-82
2023/05/27 16:45:21;;;;;;;4.20;1.90;;;;;;;18.67;41.04;99589.14;272906;1256;22284;-82
2023/05/27 16:51:22;;;;;;;4.30;1.70;;;;;;;18.59;41.64;99586.70;271157;1257;24334;-84
2023/05/27 16:57:22;;;;;;;4.00;1.90;;;;;;;18.48;41.54;99582.23;270773;1258;22531;-84
2023/05/27 17:03:25;;;;;;;6.30;2.00;;;;;;;18.36;41.88;99583.45;264252;1266;10001850;-83
2023/05/27 17:09:27;;;;;;;4.30;1.90;;;;;;;18.24;42.41;99585.00;273460;1266;22543;-85
2023/05/27 17:15:28;;;;;;;4.10;2.30;;;;;;;18.12;42.75;99582.04;272450;1266;25167;-83
2023/05/27 17:21:30;;;;;;;7.00;2.60;;;;;;;18.01;43.32;99582.79;273582;1266;23544;-84
2023/05/27 17:27:32;;;;;;;6.30;2.70;;;;;;;17.91;43.91;99584.93;274045;1266;22243;-84
2023/05/27 17:33:33;;;;;;;9.50;2.90;;;;;;;17.81;44.58;99586.45;273946;1266;23135;-84
2023/05/27 17:39:34;;;;;;;7.40;2.90;;;;;;;17.69;45.20;99592.48;274073;1266;22449;-85
2023/05/27 17:45:36;;;;;;;6.00;2.80;;;;;;;17.58;45.67;99595.65;273932;1267;22368;-83
2023/05/27 17:51:37;;;;;;;6.60;3.00;;;;;;;17.49;46.26;99599.75;274077;1263;22352;-84
2023/05/27 17:57:38;;;;;;;8.10;2.90;;;;;;;17.37;46.73;99602.09;274071;1256;22366;-83
2023/05/27 18:03:39;;;;;;;7.60;2.90;;;;;;;17.22;47.21;99604.80;273884;1262;22330;-83
2023/05/27 18:09:42;;;;;;;6.80;3.00;;;;;;;17.06;47.78;99603.78;274062;1267;22409;-86
2023/05/27 18:15:45;;;;;;;8.90;2.80;;;;;;;16.86;48.23;99603.02;273953;1269;22214;-83
2023/05/27 18:21:46;;;;;;;5.30;2.70;;;;;;;16.68;49.17;99606.95;274027;1267;22368;-83
2023/05/27 18:27:47;;;;;;;7.60;3.10;;;;;;;16.46;49.87;99609.22;274009;1266;22480;-83
2023/05/27 18:33:51;;;;;;;6.80;2.90;;;;;;;16.18;50.25;99616.54;274002;1266;23155;-83
2023/05/27 18:39:52;;;;;;;7.10;3.50;;;;;;;15.97;51.10;99624.13;273957;1266;22230;-83
2023/05/27 18:45:55;;;;;;;8.00;3.10;;;;;;;15.82;51.99;99629.89;274030;1266;22311;-83
2023/05/27 18:51:56;;;;;;;6.70;2.80;;;;;;;15.56;52.37;99638.48;273761;1259;22402;-86
2023/05/27 18:57:58;;;;;;;7.60;3.60;;;;;;;15.31;54.22;99648.09;273917;1267;24009;-83
2023/05/27 19:03:59;;;;;;;5.80;3.10;;;;;;;15.07;55.17;99648.80;273853;1267;22377;-85
2023/05/27 19:10:00;;;;;;;6.10;2.90;;;;;;;14.82;56.32;99652.64;273949;1266;22364;-82
2023/05/27 19:16:02;;;;;;;9.70;3.00;;;;;;;14.54;57.64;99649.42;274062;1267;22357;-82
2023/05/27 19:22:03;;;;;;;7.00;3.40;;;;;;;14.31;58.53;99652.45;274000;1265;23601;-83
2023/05/27 19:28:07;;;;;;;11.80;4.10;;;;;;;14.08;58.65;99653.20;273982;1265;22379;-82
2023/05/27 19:34:09;;;;;;;13.00;3.90;;;;;;;13.82;60.70;99661.56;272700;1266;22550;-84
2023/05/27 19:40:12;;;;;;;9.00;4.00;;;;;;;13.61;62.79;99662.45;271476;1267;23774;-82
2023/05/27 19:46:13;;;;;;;10.20;5.00;;;;;;;13.40;61.97;99661.92;271984;1267;23088;-82
2023/05/27 19:52:15;;;;;;;14.00;5.10;;;;;;;13.25;62.29;99662.87;274070;1266;23672;-83
2023/05/27 19:58:17;;;;;;;9.30;4.50;;;;;;;13.15;62.78;99666.30;274012;1266;22555;-85
2023/05/27 20:04:19;;;;;;;13.60;5.40;;;;;;;13.11;63.39;99666.10;273403;1266;22573;-83
2023/05/27 20:10:21;;;;;;;17.10;5.80;;;;;;;13.13;64.23;99661.09;272619;1266;22224;-83
2023/05/27 20:16:23;;;;;;;12.60;5.40;;;;;;;13.13;65.61;99656.70;274043;1264;22191;-82
2023/05/27 20:22:24;;;;;;;10.60;5.30;;;;;;;13.08;66.36;99662.23;274079;1257;22313;-82
2023/05/27 20:28:25;;;;;;;12.30;6.50;;;;;;;12.99;66.18;99660.77;273893;1266;22496;-82
2023/05/27 20:34:28;;;;;;;17.90;6.60;;;;;;;12.89;66.93;99660.38;273836;1266;22342;-85
2023/05/27 20:40:32;;;;;;;16.40;7.40;;;;;;;12.79;68.43;99662.77;273861;1267;22402;-82
2023/05/27 20:46:33;;;;;;;15.60;6.30;;;;;;;12.65;69.55;99662.42;274012;1266;22585;-82
2023/05/27 20:52:34;;;;;;;15.50;6.60;;;;;;;12.46;70.44;99662.73;274143;1261;22379;-82
2023/05/27 20:58:36;;;;;;;13.50;6.90;;;;;;;12.31;70.88;99662.89;274081;1254;22378;-82
2023/05/27 21:04:38;;;;;;;17.70;8.60;;;;;;;12.22;70.96;99660.34;272975;1264;22348;-83
2023/05/27 21:10:39;;;;;;;11.60;6.70;;;;;;;12.11;71.63;99660.23;274066;1267;22986;-83
2023/05/27 21:16:40;;;;;;;19.30;8.50;;;;;;;11.97;72.67;99659.47;271238;1263;24257;-82
2023/05/27 21:22:42;;;;;;;14.50;8.10;;;;;;;11.82;73.13;99660.55;271304;1267;22557;-83
2023/05/27 21:28:45;;;;;;;16.80;8.70;;;;;;;11.65;73.93;99663.52;273489;1264;22405;-83
2023/05/27 21:34:46;;;;;;;15.20;8.80;;;;;;;11.48;74.45;99666.20;274199;1257;22302;-82
2023/05/27 21:40:47;;;;;;;15.60;8.20;;;;;;;11.33;75.33;99665.91;274267;1257;23182;-82
2023/05/27 21:46:48;;;;;;;16.30;8.70;;;;;;;11.21;75.40;99666.32;274316;1257;22342;-82
2023/05/27 21:52:48;;;;;;;16.40;8.10;;;;;;;11.09;75.39;99665.31;274172;1258;22459;-83
2023/05/27 21:58:50;;;;;;;11.20;6.90;;;;;;;11.04;76.65;99661.68;274008;1268;80043;-83
2023/05/27 22:04:51;;;;;;;13.60;8.20;;;;;;;10.96;76.86;99659.19;274176;1254;23133;-83
2023/05/27 22:10:52;;;;;;;15.70;7.70;;;;;;;10.86;76.87;99662.65;274246;1257;23517;-82
2023/05/27 22:16:53;;;;;;;13.80;7.00;;;;;;;10.77;77.24;99660.98;274203;1260;22813;-82
2023/05/27 22:22:54;;;;;;;18.70;7.70;;;;;;;10.66;77.05;99654.73;274104;1267;22501;-82
2023/05/27 22:28:54;;;;;;;18.10;8.70;;;;;;;10.55;77.76;99656.13;274270;1251;22414;-83
2023/05/27 22:34:56;;;;;;;13.30;7.20;;;;;;;10.42;78.28;99651.60;274282;1264;22224;-82
2023/05/27 22:40:57;;;;;;;17.20;9.40;;;;;;;10.27;78.54;99646.02;274107;1267;22440;-86
2023/05/27 22:46:59;;;;;;;13.70;8.30;;;;;;;10.12;78.48;99639.30;273576;1261;22359;-83
2023/05/27 22:53:00;;;;;;;18.50;8.50;;;;;;;10.00;79.35;99638.89;274187;1258;22200;-83
2023/05/27 22:59:01;;;;;;;15.30;7.80;;;;;;;9.89;79.85;99630.91;274076;1267;22426;-82
2023/05/27 23:05:02;;;;;;;16.60;8.80;;;;;;;9.74;80.64;99626.02;274150;1258;22196;-84
2023/05/27 23:11:03;;;;;;;15.40;8.20;;;;;;;9.57;80.95;99619.50;274285;1256;22213;-82
2023/05/27 23:17:04;;;;;;;17.10;8.00;;;;;;;9.42;81.36;99617.39;274268;1254;22394;-82
2023/05/27 23:23:06;;;;;;;19.00;7.20;;;;;;;9.26;81.72;99613.95;274349;1266;22212;-82
2023/05/27 23:29:08;;;;;;;15.70;8.00;;;;;;;9.11;82.27;99613.48;274112;1266;22392;-82
2023/05/27 23:35:11;;;;;;;15.10;7.60;;;;;;;8.98;82.14;99608.22;274144;1266;22439;-80
2023/05/27 23:41:12;;;;;;;11.60;7.70;;;;;;;8.85;82.16;99606.44;274192;1257;22461;-82
2023/05/27 23:47:13;;;;;;;14.00;7.20;;;;;;;8.75;82.41;99598.36;274212;1255;22405;-82
2023/05/27 23:53:15;;;;;;;14.80;7.30;;;;;;;8.63;82.82;99590.48;273777;1257;25376;-82
2023/05/27 23:59:16;;;;;;;11.60;7.00;;;;;;;8.54;83.00;99591.13;273486;1257;22414;-82
